BHE536 ZSNJ-ZBMZ
Flight info
| Callsign | BHE536 |
|---|---|
| Flight time | N/A |
| Altitude | 37100 |
| Route | OF61X OF W178 RUXEL DCT GURIL DCT MABEB DCT XDX DCT URBAD W172 IGDEG W173 NIXEP W8 DOBGA W202 UDETI A588 BIDIB A345 KAGAK W538 MZL |
| Aircraft | A20N/M-SDE2E3FGHIRWXY/LB1 |
Departure
| Time | 2026-04-22 04:51 |
|---|---|
| Airport | Nanjing Lukou International Airport (ZSNJ) |
Arrival
| Time | N/A |
|---|---|
| Airport | Manzhouli Xijiao Airport (ZBMZ) |
| Time | Latitude | Longitude | Altitude | Speed | Heading |
|---|---|---|---|---|---|
| 2026-04-22 04:27 | 31.73576 | 118.86101 | 57 ft | 0 kts | 51° |
| 2026-04-22 04:41 | 31.73572 | 118.86095 | 57 ft | 2 kts | 51° |
| 2026-04-22 04:42 | 31.73562 | 118.86082 | 56 ft | 2 kts | 51° |
| 2026-04-22 04:42 | 31.73553 | 118.86068 | 57 ft | 2 kts | 51° |
| 2026-04-22 04:42 | 31.73547 | 118.86059 | 57 ft | 1 kts | 52° |
| 2026-04-22 04:42 | 31.73536 | 118.86047 | 56 ft | 2 kts | 21° |
| 2026-04-22 04:43 | 31.73521 | 118.86044 | 57 ft | 2 kts | 355° |
| 2026-04-22 04:43 | 31.73508 | 118.86047 | 56 ft | 0 kts | 333° |
| 2026-04-22 04:43 | 31.73503 | 118.86052 | 56 ft | 1 kts | 328° |
| 2026-04-22 04:43 | 31.73501 | 118.86053 | 57 ft | 0 kts | 329° |
| 2026-04-22 04:45 | 31.73503 | 118.86051 | 56 ft | 0 kts | 329° |
| 2026-04-22 04:45 | 31.73516 | 118.86042 | 56 ft | 3 kts | 329° |
| 2026-04-22 04:45 | 31.73545 | 118.86021 | 56 ft | 6 kts | 329° |
| 2026-04-22 04:45 | 31.73589 | 118.85990 | 56 ft | 8 kts | 328° |
| 2026-04-22 04:46 | 31.73648 | 118.85948 | 56 ft | 10 kts | 328° |
| 2026-04-22 04:46 | 31.73711 | 118.85902 | 57 ft | 11 kts | 328° |
| 2026-04-22 04:46 | 31.73777 | 118.85854 | 56 ft | 10 kts | 327° |
| 2026-04-22 04:46 | 31.73782 | 118.85779 | 56 ft | 10 kts | 236° |
| 2026-04-22 04:47 | 31.73742 | 118.85700 | 56 ft | 11 kts | 239° |
| 2026-04-22 04:47 | 31.73698 | 118.85616 | 56 ft | 12 kts | 238° |
| 2026-04-22 04:47 | 31.73648 | 118.85524 | 56 ft | 14 kts | 239° |
| 2026-04-22 04:47 | 31.73599 | 118.85412 | 56 ft | 16 kts | 245° |
| 2026-04-22 04:48 | 31.73534 | 118.85306 | 56 ft | 16 kts | 230° |
| 2026-04-22 04:48 | 31.73471 | 118.85193 | 56 ft | 16 kts | 239° |
| 2026-04-22 04:48 | 31.73410 | 118.85077 | 56 ft | 16 kts | 239° |
| 2026-04-22 04:48 | 31.73348 | 118.84961 | 56 ft | 16 kts | 238° |
| 2026-04-22 04:49 | 31.73284 | 118.84844 | 56 ft | 16 kts | 238° |
| 2026-04-22 04:49 | 31.73235 | 118.84750 | 57 ft | 10 kts | 242° |
| 2026-04-22 04:49 | 31.73254 | 118.84677 | 56 ft | 10 kts | 331° |
| 2026-04-22 04:49 | 31.73321 | 118.84631 | 57 ft | 11 kts | 328° |
| 2026-04-22 04:50 | 31.73385 | 118.84640 | 57 ft | 7 kts | 60° |
| 2026-04-22 04:50 | 31.73395 | 118.84657 | 56 ft | 11 kts | 57° |
| 2026-04-22 04:50 | 31.73586 | 118.85013 | 57 ft | 87 kts | 58° |
| 2026-04-22 04:50 | 31.74022 | 118.85829 | 57 ft | 147 kts | 58° |
| 2026-04-22 04:51 | 31.74633 | 118.86969 | 353 ft | 170 kts | 55° |
| 2026-04-22 04:51 | 31.75249 | 118.88149 | 1036 ft | 171 kts | 55° |
| 2026-04-22 04:51 | 31.75837 | 118.89292 | 1814 ft | 165 kts | 54° |
| 2026-04-22 04:51 | 31.76417 | 118.90430 | 2533 ft | 161 kts | 54° |
| 2026-04-22 04:52 | 31.77006 | 118.91537 | 3105 ft | 164 kts | 53° |
| 2026-04-22 04:52 | 31.77655 | 118.92713 | 3493 ft | 180 kts | 53° |
| 2026-04-22 04:52 | 31.78369 | 118.94014 | 3843 ft | 199 kts | 54° |
| 2026-04-22 04:52 | 31.79153 | 118.95457 | 4194 ft | 221 kts | 56° |
| 2026-04-22 04:53 | 31.80004 | 118.97044 | 4678 ft | 236 kts | 55° |
| 2026-04-22 04:53 | 31.80873 | 118.98668 | 5489 ft | 238 kts | 55° |
| 2026-04-22 04:53 | 31.81748 | 119.00310 | 6192 ft | 244 kts | 56° |
| 2026-04-22 04:53 | 31.82662 | 119.02027 | 6897 ft | 250 kts | 56° |
| 2026-04-22 04:54 | 31.83584 | 119.03761 | 7616 ft | 255 kts | 56° |
| 2026-04-22 04:54 | 31.84529 | 119.05544 | 8314 ft | 261 kts | 56° |
| 2026-04-22 04:54 | 31.85493 | 119.07362 | 9037 ft | 266 kts | 56° |
| 2026-04-22 04:54 | 31.86480 | 119.09221 | 9729 ft | 270 kts | 56° |
| 2026-04-22 04:55 | 31.87553 | 119.11013 | 10369 ft | 273 kts | 40° |